createdAt,value
2018-06-03T00:00:02.127Z,0
2018-06-03T00:01:02.702Z,0
2018-06-03T00:02:03.278Z,0
2018-06-03T00:03:03.853Z,0
2018-06-03T00:04:04.427Z,0
2018-06-03T00:05:05.004Z,0
2018-06-03T00:06:05.581Z,0
2018-06-03T00:07:06.156Z,0
2018-06-03T00:08:06.734Z,0
2018-06-03T00:09:07.309Z,0
2018-06-03T00:10:07.883Z,0
2018-06-03T00:11:08.459Z,0
2018-06-03T00:12:09.039Z,0
2018-06-03T00:13:09.616Z,0
2018-06-03T00:14:10.192Z,0
2018-06-03T00:15:10.769Z,0
2018-06-03T00:16:11.343Z,0
2018-06-03T00:17:11.920Z,0
2018-06-03T00:18:12.495Z,0
2018-06-03T00:19:13.084Z,0
2018-06-03T00:20:13.658Z,0
2018-06-03T00:21:14.233Z,0
2018-06-03T00:22:14.809Z,0
2018-06-03T00:23:15.384Z,0
2018-06-03T00:24:15.961Z,0
2018-06-03T00:25:16.537Z,0
2018-06-03T00:26:17.126Z,0
2018-06-03T00:27:17.699Z,0
2018-06-03T00:28:18.277Z,0
2018-06-03T00:29:18.853Z,0
2018-06-03T00:30:19.430Z,0
2018-06-03T00:31:20.004Z,0
2018-06-03T00:32:20.580Z,0
2018-06-03T00:33:21.154Z,0
2018-06-03T00:34:21.729Z,0
2018-06-03T00:35:22.304Z,0
2018-06-03T00:36:22.879Z,0
2018-06-03T00:37:23.454Z,0
2018-06-03T00:38:24.041Z,0
2018-06-03T00:39:24.619Z,0
2018-06-03T00:40:25.240Z,0
2018-06-03T00:41:25.778Z,0
2018-06-03T00:42:26.354Z,0
2018-06-03T00:43:26.928Z,0
2018-06-03T00:44:27.504Z,0
2018-06-03T00:45:28.078Z,0
2018-06-03T00:46:28.653Z,0
2018-06-03T00:47:29.227Z,0
2018-06-03T00:48:29.804Z,0
2018-06-03T00:49:30.381Z,0
2018-06-03T00:50:30.969Z,0
2018-06-03T00:51:31.544Z,0
2018-06-03T00:52:32.121Z,0
2018-06-03T00:53:32.697Z,0
2018-06-03T00:54:33.276Z,0
2018-06-03T00:55:33.851Z,0
2018-06-03T00:56:34.435Z,0
2018-06-03T00:57:35.017Z,0
2018-06-03T00:58:35.589Z,0
2018-06-03T00:59:36.176Z,0
2018-06-03T01:00:36.759Z,0
2018-06-03T01:01:37.333Z,0
2018-06-03T01:02:37.908Z,0
2018-06-03T01:03:38.488Z,0
2018-06-03T01:04:39.058Z,0
2018-06-03T01:05:39.635Z,0
2018-06-03T01:06:40.210Z,0
2018-06-03T01:07:40.786Z,0
2018-06-03T01:08:41.373Z,0
2018-06-03T01:09:41.948Z,0
2018-06-03T01:10:42.525Z,0
2018-06-03T01:11:43.099Z,0
2018-06-03T01:12:43.678Z,0
2018-06-03T01:13:44.251Z,0
2018-06-03T01:14:44.837Z,0
2018-06-03T01:15:45.414Z,0
2018-06-03T01:16:45.988Z,0
2018-06-03T01:17:46.563Z,0
2018-06-03T01:18:47.137Z,0
2018-06-03T01:19:47.715Z,0
2018-06-03T01:20:48.300Z,0
2018-06-03T01:21:48.873Z,0
2018-06-03T01:22:49.450Z,0
2018-06-03T01:23:50.025Z,0
2018-06-03T01:24:50.612Z,0
2018-06-03T01:25:51.188Z,0
2018-06-03T01:26:51.762Z,0
2018-06-03T01:27:52.339Z,0
2018-06-03T01:28:52.913Z,0
2018-06-03T01:29:53.505Z,0
2018-06-03T01:30:54.061Z,0
2018-06-03T01:31:54.637Z,0
2018-06-03T01:32:55.221Z,0
2018-06-03T01:33:55.796Z,0
2018-06-03T01:34:56.372Z,0
2018-06-03T01:35:56.955Z,0
2018-06-03T01:36:57.540Z,0
2018-06-03T01:37:58.115Z,0
2018-06-03T01:38:58.688Z,0
2018-06-03T01:39:59.263Z,0
2018-06-03T01:40:59.838Z,0
2018-06-03T01:42:00.414Z,0
2018-06-03T01:43:00.989Z,0
2018-06-03T01:44:01.564Z,0
2018-06-03T01:45:02.246Z,0
2018-06-03T01:46:02.722Z,0
2018-06-03T01:47:03.296Z,0
2018-06-03T01:48:03.870Z,0
2018-06-03T01:49:04.449Z,0
2018-06-03T01:50:05.025Z,0
2018-06-03T01:51:05.608Z,0
2018-06-03T01:52:06.183Z,0
2018-06-03T01:53:06.767Z,0
2018-06-03T01:54:07.351Z,0
2018-06-03T01:55:07.925Z,0
2018-06-03T01:56:08.503Z,0
2018-06-03T01:57:09.077Z,0
2018-06-03T01:58:09.654Z,0
2018-06-03T01:59:10.227Z,0
2018-06-03T02:00:10.804Z,0
2018-06-03T02:01:11.378Z,0
2018-06-03T02:02:11.953Z,0
2018-06-03T02:03:12.527Z,0
2018-06-03T02:04:13.100Z,0
2018-06-03T02:05:13.675Z,0
2018-06-03T02:06:14.248Z,0
2018-06-03T02:07:14.821Z,0
2018-06-03T02:08:15.453Z,0
2018-06-03T02:09:15.983Z,0
2018-06-03T02:10:16.557Z,0
2018-06-03T02:11:17.133Z,0
2018-06-03T02:12:17.719Z,0
2018-06-03T02:13:18.293Z,0
2018-06-03T02:14:18.869Z,0
2018-06-03T02:15:19.441Z,0
2018-06-03T02:16:20.017Z,0
2018-06-03T02:17:20.595Z,0
2018-06-03T02:18:21.174Z,0
2018-06-03T02:19:21.751Z,0
2018-06-03T02:20:22.325Z,0
2018-06-03T02:21:22.902Z,0
2018-06-03T02:22:23.488Z,0
2018-06-03T02:23:24.063Z,0
2018-06-03T02:24:24.647Z,0
2018-06-03T02:25:25.221Z,0
2018-06-03T02:26:25.796Z,0
2018-06-03T02:27:26.370Z,0
2018-06-03T02:28:26.947Z,0
2018-06-03T02:29:27.523Z,0
2018-06-03T02:30:28.098Z,0
2018-06-03T02:31:28.684Z,0
2018-06-03T02:32:29.260Z,0
2018-06-03T02:33:29.836Z,0
2018-06-03T02:34:30.414Z,0
2018-06-03T02:35:30.986Z,0
2018-06-03T02:36:31.563Z,0
2018-06-03T02:37:32.136Z,0
2018-06-03T02:38:32.710Z,0
2018-06-03T02:39:33.282Z,0
2018-06-03T02:40:33.858Z,0
2018-06-03T02:41:34.443Z,0
2018-06-03T02:42:35.017Z,0
2018-06-03T02:43:35.591Z,0
2018-06-03T02:44:36.168Z,0
2018-06-03T02:45:36.738Z,0
2018-06-03T02:46:37.313Z,0
2018-06-03T02:47:37.887Z,0
2018-06-03T02:48:38.461Z,0
2018-06-03T02:49:39.041Z,0
2018-06-03T02:50:39.620Z,0
2018-06-03T02:51:40.194Z,0
2018-06-03T02:52:40.769Z,0
2018-06-03T02:53:41.343Z,0
2018-06-03T02:54:41.918Z,0
2018-06-03T02:55:42.490Z,0
2018-06-03T02:56:43.065Z,0
2018-06-03T02:57:43.639Z,0
2018-06-03T02:58:44.211Z,0
2018-06-03T02:59:44.785Z,0
2018-06-03T03:00:45.363Z,4
2018-06-03T03:01:45.943Z,4
2018-06-03T03:02:46.516Z,0
2018-06-03T03:03:47.091Z,0
2018-06-03T03:04:47.668Z,0
2018-06-03T03:05:48.239Z,0
2018-06-03T03:06:48.814Z,0
2018-06-03T03:07:49.387Z,0
2018-06-03T03:08:49.961Z,4
2018-06-03T03:09:50.533Z,4
2018-06-03T03:10:51.109Z,4
2018-06-03T03:11:51.687Z,4
2018-06-03T03:12:52.270Z,0
2018-06-03T03:13:52.846Z,4
2018-06-03T03:14:53.417Z,4
2018-06-03T03:15:53.992Z,4
2018-06-03T03:16:54.565Z,4
2018-06-03T03:17:55.140Z,4
2018-06-03T03:18:55.714Z,4
2018-06-03T03:19:56.290Z,4
2018-06-03T03:20:56.864Z,8
2018-06-03T03:21:57.440Z,4
2018-06-03T03:22:58.013Z,8
2018-06-03T03:23:58.589Z,4
2018-06-03T03:24:59.163Z,4
2018-06-03T03:25:59.738Z,4
2018-06-03T03:27:00.313Z,8
2018-06-03T03:28:00.899Z,8
2018-06-03T03:29:01.476Z,8
2018-06-03T03:30:02.049Z,8
2018-06-03T03:31:02.633Z,8
2018-06-03T03:32:03.209Z,12
2018-06-03T03:33:03.784Z,8
2018-06-03T03:34:04.368Z,12
2018-06-03T03:35:04.943Z,12
2018-06-03T03:36:05.529Z,12
2018-06-03T03:37:06.105Z,16
2018-06-03T03:38:06.679Z,12
2018-06-03T03:39:07.257Z,12
2018-06-03T03:40:07.828Z,16
2018-06-03T03:41:08.405Z,16
2018-06-03T03:42:08.984Z,20
2018-06-03T03:43:09.568Z,20
2018-06-03T03:44:10.143Z,24
2018-06-03T03:45:10.720Z,20
2018-06-03T03:46:11.295Z,20
2018-06-03T03:47:11.873Z,24
2018-06-03T03:48:12.448Z,24
2018-06-03T03:49:13.023Z,28
2018-06-03T03:50:13.598Z,28
2018-06-03T03:51:14.174Z,28
2018-06-03T03:52:14.751Z,32
2018-06-03T03:53:15.325Z,32
2018-06-03T03:54:15.903Z,32
2018-06-03T03:55:16.476Z,32
2018-06-03T03:56:17.053Z,32
2018-06-03T03:57:17.629Z,40
2018-06-03T03:58:18.208Z,40
2018-06-03T03:59:18.779Z,40
2018-06-03T04:00:19.355Z,44
2018-06-03T04:01:19.936Z,44
2018-06-03T04:02:20.508Z,48
2018-06-03T04:03:21.086Z,52
2018-06-03T04:04:21.672Z,52
2018-06-03T04:05:22.248Z,52
2018-06-03T04:06:22.825Z,56
2018-06-03T04:07:23.412Z,60
2018-06-03T04:08:23.988Z,60
2018-06-03T04:09:24.566Z,60
2018-06-03T04:10:25.140Z,64
2018-06-03T04:11:25.718Z,64
2018-06-03T04:12:26.295Z,64
2018-06-03T04:13:26.880Z,68
2018-06-03T04:14:27.456Z,68
2018-06-03T04:15:28.031Z,72
2018-06-03T04:16:28.607Z,72
2018-06-03T04:17:29.182Z,72
2018-06-03T04:18:29.757Z,76
2018-06-03T04:19:30.336Z,80
2018-06-03T04:20:30.911Z,80
2018-06-03T04:21:31.489Z,84
2018-06-03T04:22:32.064Z,80
2018-06-03T04:23:32.640Z,84
2018-06-03T04:24:33.221Z,84
2018-06-03T04:25:33.790Z,88
2018-06-03T04:26:34.368Z,88
2018-06-03T04:27:34.944Z,92
2018-06-03T04:28:35.522Z,96
2018-06-03T04:29:36.104Z,96
2018-06-03T04:30:36.675Z,96
2018-06-03T04:31:37.261Z,100
2018-06-03T04:32:37.838Z,100
2018-06-03T04:33:38.416Z,100
2018-06-03T04:34:38.992Z,104
2018-06-03T04:35:39.569Z,104
2018-06-03T04:36:40.148Z,108
2018-06-03T04:37:40.725Z,116
2018-06-03T04:38:41.304Z,120
2018-06-03T04:39:41.880Z,120
2018-06-03T04:40:42.458Z,124
2018-06-03T04:41:43.034Z,128
2018-06-03T04:42:43.611Z,132
2018-06-03T04:43:44.197Z,136
2018-06-03T04:44:44.776Z,136
2018-06-03T04:45:45.352Z,140
2018-06-03T04:46:45.931Z,144
2018-06-03T04:47:46.506Z,148
2018-06-03T04:48:47.099Z,152
2018-06-03T04:49:47.671Z,152
2018-06-03T04:50:48.250Z,156
2018-06-03T04:51:48.837Z,160
2018-06-03T04:52:49.417Z,164
2018-06-03T04:53:49.994Z,160
2018-06-03T04:54:50.574Z,164
2018-06-03T04:55:51.158Z,168
2018-06-03T04:56:51.747Z,168
2018-06-03T04:57:52.323Z,176
2018-06-03T04:58:52.903Z,184
2018-06-03T04:59:53.491Z,184
2018-06-03T05:00:54.067Z,188
2018-06-03T05:01:54.645Z,188
2018-06-03T05:02:55.221Z,192
2018-06-03T05:03:55.809Z,192
2018-06-03T05:04:56.387Z,192
2018-06-03T05:05:56.964Z,188
2018-06-03T05:06:57.540Z,188
2018-06-03T05:07:58.120Z,188
2018-06-03T05:08:58.697Z,192
2018-06-03T05:09:59.275Z,192
2018-06-03T05:10:59.862Z,188
2018-06-03T05:12:00.440Z,188
2018-06-03T05:13:01.018Z,188
2018-06-03T05:14:01.607Z,188
2018-06-03T05:15:02.184Z,184
2018-06-03T05:16:02.759Z,192
2018-06-03T05:17:03.336Z,192
2018-06-03T05:18:03.912Z,196
2018-06-03T05:19:04.489Z,204
2018-06-03T05:20:05.067Z,208
2018-06-03T05:21:05.645Z,216
2018-06-03T05:22:06.225Z,228
2018-06-03T05:23:06.813Z,240
2018-06-03T05:24:07.391Z,248
2018-06-03T05:25:07.967Z,252
2018-06-03T05:26:08.556Z,260
2018-06-03T05:27:09.146Z,264
2018-06-03T05:28:09.723Z,260
2018-06-03T05:29:10.300Z,264
2018-06-03T05:30:10.882Z,264
2018-06-03T05:31:11.455Z,276
2018-06-03T05:32:12.033Z,280
2018-06-03T05:33:12.613Z,284
2018-06-03T05:34:13.202Z,288
2018-06-03T05:35:13.779Z,300
2018-06-03T05:36:14.358Z,304
2018-06-03T05:37:14.935Z,312
2018-06-03T05:38:15.514Z,316
2018-06-03T05:39:16.096Z,328
2018-06-03T05:40:16.680Z,344
2018-06-03T05:41:17.258Z,360
2018-06-03T05:42:17.838Z,372
2018-06-03T05:43:18.416Z,400
2018-06-03T05:44:18.993Z,404
2018-06-03T05:45:19.573Z,404
2018-06-03T05:46:20.151Z,424
2018-06-03T05:47:20.730Z,416
2018-06-03T05:48:21.318Z,440
2018-06-03T05:49:21.895Z,424
2018-06-03T05:50:22.474Z,436
2018-06-03T05:51:23.052Z,420
2018-06-03T05:52:23.631Z,416
2018-06-03T05:53:24.219Z,400
2018-06-03T05:54:24.808Z,384
2018-06-03T05:55:25.386Z,372
2018-06-03T05:56:25.964Z,360
2018-06-03T05:57:26.545Z,352
2018-06-03T05:58:27.122Z,352
2018-06-03T05:59:27.700Z,356
2018-06-03T06:00:28.277Z,352
2018-06-03T06:01:28.855Z,356
2018-06-03T06:02:29.435Z,356
2018-06-03T06:03:30.014Z,344
2018-06-03T06:04:30.593Z,336
2018-06-03T06:05:31.170Z,332
2018-06-03T06:06:31.749Z,328
2018-06-03T06:07:32.329Z,328
2018-06-03T06:08:32.905Z,328
2018-06-03T06:09:33.484Z,324
2018-06-03T06:10:34.063Z,324
2018-06-03T06:11:34.642Z,320
2018-06-03T06:12:35.223Z,324
2018-06-03T06:13:35.810Z,328
2018-06-03T06:14:36.388Z,332
2018-06-03T06:15:36.968Z,340
2018-06-03T06:16:37.548Z,348
2018-06-03T06:17:38.124Z,356
2018-06-03T06:18:38.713Z,364
2018-06-03T06:19:39.292Z,368
2018-06-03T06:20:39.873Z,380
2018-06-03T06:21:40.451Z,384
2018-06-03T06:22:41.027Z,392
2018-06-03T06:23:41.604Z,396
2018-06-03T06:24:42.182Z,396
2018-06-03T06:25:42.761Z,396
2018-06-03T06:26:43.340Z,392
2018-06-03T06:27:43.929Z,396
2018-06-03T06:28:44.508Z,396
2018-06-03T06:29:45.085Z,396
2018-06-03T06:30:45.667Z,396
2018-06-03T06:31:46.242Z,388
2018-06-03T06:32:46.821Z,380
2018-06-03T06:33:47.400Z,376
2018-06-03T06:34:47.983Z,376
2018-06-03T06:35:48.570Z,376
2018-06-03T06:36:49.147Z,372
2018-06-03T06:37:49.726Z,368
2018-06-03T06:38:50.304Z,372
2018-06-03T06:39:50.894Z,376
2018-06-03T06:40:51.473Z,392
2018-06-03T06:41:52.055Z,404
2018-06-03T06:42:52.633Z,416
2018-06-03T06:43:53.212Z,428
2018-06-03T06:44:53.790Z,436
2018-06-03T06:45:54.370Z,452
2018-06-03T06:46:54.950Z,464
2018-06-03T06:47:55.529Z,476
2018-06-03T06:48:56.107Z,484
2018-06-03T06:49:56.697Z,496
2018-06-03T06:50:57.274Z,512
2018-06-03T06:51:57.852Z,524
2018-06-03T06:52:58.441Z,524
2018-06-03T06:53:59.025Z,524
2018-06-03T06:54:59.597Z,536
2018-06-03T06:56:00.186Z,572
2018-06-03T06:57:00.765Z,572
2018-06-03T06:58:01.345Z,560
2018-06-03T06:59:01.926Z,608
2018-06-03T07:00:02.505Z,604
2018-06-03T07:01:03.094Z,604
2018-06-03T07:02:03.672Z,612
2018-06-03T07:03:04.252Z,624
2018-06-03T07:04:04.831Z,656
2018-06-03T07:05:05.413Z,624
2018-06-03T07:06:05.996Z,636
2018-06-03T07:07:06.574Z,576
2018-06-03T07:08:07.161Z,532
2018-06-03T07:09:07.740Z,492
2018-06-03T07:10:08.319Z,448
2018-06-03T07:11:08.900Z,400
2018-06-03T07:12:09.489Z,360
2018-06-03T07:13:10.128Z,332
2018-06-03T07:14:10.650Z,312
2018-06-03T07:15:11.229Z,304
2018-06-03T07:16:11.808Z,300
2018-06-03T07:17:12.386Z,304
2018-06-03T07:18:12.975Z,300
2018-06-03T07:19:13.554Z,300
2018-06-03T07:20:14.135Z,304
2018-06-03T07:21:14.714Z,324
2018-06-03T07:22:15.294Z,340
2018-06-03T07:23:15.883Z,356
2018-06-03T07:24:16.463Z,368
2018-06-03T07:25:17.042Z,376
2018-06-03T07:26:17.620Z,380
2018-06-03T07:27:18.201Z,384
2018-06-03T07:28:18.782Z,396
2018-06-03T07:29:19.360Z,408
2018-06-03T07:30:19.939Z,428
2018-06-03T07:31:20.519Z,440
2018-06-03T07:32:21.099Z,452
2018-06-03T07:33:21.679Z,452
2018-06-03T07:34:22.260Z,460
2018-06-03T07:35:22.839Z,468
2018-06-03T07:36:23.421Z,484
2018-06-03T07:37:24.008Z,500
2018-06-03T07:38:24.599Z,520
2018-06-03T07:39:25.190Z,528
2018-06-03T07:40:25.769Z,532
2018-06-03T07:41:26.360Z,528
2018-06-03T07:42:26.938Z,528
2018-06-03T07:43:27.517Z,524
2018-06-03T07:44:28.098Z,524
2018-06-03T07:45:28.678Z,524
2018-06-03T07:46:29.257Z,528
2018-06-03T07:47:29.836Z,536
2018-06-03T07:48:30.417Z,532
2018-06-03T07:49:30.997Z,532
2018-06-03T07:50:31.576Z,528
2018-06-03T07:51:32.154Z,516
2018-06-03T07:52:32.833Z,512
2018-06-03T07:53:33.411Z,516
2018-06-03T07:54:33.990Z,508
2018-06-03T07:55:34.571Z,508
2018-06-03T07:56:35.147Z,512
2018-06-03T07:57:35.725Z,504
2018-06-03T07:58:36.303Z,500
2018-06-03T07:59:36.883Z,512
2018-06-03T08:00:37.463Z,532
2018-06-03T08:01:38.043Z,536
2018-06-03T08:02:38.621Z,540
2018-06-03T08:03:39.212Z,544
2018-06-03T08:04:39.790Z,548
2018-06-03T08:05:40.369Z,564
2018-06-03T08:06:40.951Z,532
2018-06-03T08:07:41.530Z,516
2018-06-03T08:08:42.109Z,508
2018-06-03T08:09:42.688Z,496
2018-06-03T08:10:43.268Z,484
2018-06-03T08:11:43.848Z,480
2018-06-03T08:12:44.427Z,468
2018-06-03T08:13:45.016Z,468
2018-06-03T08:14:45.597Z,472
2018-06-03T08:15:46.176Z,476
2018-06-03T08:16:46.754Z,472
2018-06-03T08:17:47.335Z,484
2018-06-03T08:18:47.913Z,448
2018-06-03T08:19:48.494Z,428
2018-06-03T08:20:49.071Z,412
2018-06-03T08:21:49.661Z,400
2018-06-03T08:22:50.258Z,388
2018-06-03T08:23:50.818Z,380
2018-06-03T08:24:51.399Z,380
2018-06-03T08:25:51.979Z,376
2018-06-03T08:26:52.558Z,368
2018-06-03T08:27:53.138Z,364
2018-06-03T08:28:53.727Z,356
2018-06-03T08:29:54.331Z,352
2018-06-03T08:30:54.896Z,360
2018-06-03T08:31:55.473Z,364
2018-06-03T08:32:56.064Z,368
2018-06-03T08:33:56.653Z,372
2018-06-03T08:34:57.232Z,376
2018-06-03T08:35:57.822Z,380
2018-06-03T08:36:58.402Z,388
2018-06-03T08:37:58.981Z,408
2018-06-03T08:38:59.573Z,416
2018-06-03T08:40:00.151Z,416
2018-06-03T08:41:00.728Z,420
2018-06-03T08:42:01.307Z,420
2018-06-03T08:43:01.940Z,424
2018-06-03T08:44:02.515Z,432
2018-06-03T08:45:03.093Z,444
2018-06-03T08:46:03.672Z,464
2018-06-03T08:47:04.251Z,484
2018-06-03T08:48:04.829Z,508
2018-06-03T08:49:05.407Z,528
2018-06-03T08:50:05.985Z,552
2018-06-03T08:51:06.567Z,576
2018-06-03T08:52:07.190Z,596
2018-06-03T08:53:07.744Z,608
2018-06-03T08:54:08.333Z,608
2018-06-03T08:55:08.912Z,616
2018-06-03T08:56:09.496Z,632
2018-06-03T08:57:10.070Z,648
2018-06-03T08:58:10.659Z,660
2018-06-03T08:59:11.237Z,676
2018-06-03T09:00:11.822Z,692
2018-06-03T09:01:12.405Z,704
2018-06-03T09:02:12.983Z,712
2018-06-03T09:03:13.562Z,720
2018-06-03T09:04:14.141Z,732
2018-06-03T09:05:14.732Z,744
2018-06-03T09:06:15.312Z,756
2018-06-03T09:07:15.890Z,772
2018-06-03T09:08:16.480Z,776
2018-06-03T09:09:17.060Z,780
2018-06-03T09:10:17.639Z,880
2018-06-03T09:11:18.228Z,824
2018-06-03T09:12:18.806Z,812
2018-06-03T09:13:19.385Z,824
2018-06-03T09:14:19.964Z,832
2018-06-03T09:15:20.544Z,824
2018-06-03T09:16:21.125Z,860
2018-06-03T09:17:21.709Z,832
2018-06-03T09:18:22.286Z,824
2018-06-03T09:19:22.874Z,828
2018-06-03T09:20:23.455Z,864
2018-06-03T09:21:24.032Z,852
2018-06-03T09:22:24.622Z,864
2018-06-03T09:23:25.200Z,964
2018-06-03T09:24:25.781Z,864
2018-06-03T09:25:26.363Z,896
2018-06-03T09:26:26.943Z,888
2018-06-03T09:27:27.521Z,900
2018-06-03T09:28:28.145Z,876
2018-06-03T09:29:28.692Z,908
2018-06-03T09:30:29.273Z,1060
2018-06-03T09:31:29.855Z,1100
2018-06-03T09:32:30.437Z,1108
2018-06-03T09:33:31.015Z,1076
2018-06-03T09:34:31.604Z,912
2018-06-03T09:35:32.183Z,880
2018-06-03T09:36:32.786Z,856
2018-06-03T09:37:33.371Z,856
2018-06-03T09:38:33.945Z,904
2018-06-03T09:39:34.524Z,812
2018-06-03T09:40:35.104Z,796
2018-06-03T09:41:35.685Z,784
2018-06-03T09:42:36.263Z,780
2018-06-03T09:43:36.844Z,776
2018-06-03T09:44:37.459Z,776
2018-06-03T09:45:38.013Z,780
2018-06-03T09:46:38.589Z,780
2018-06-03T09:47:39.168Z,784
2018-06-03T09:48:39.747Z,792
2018-06-03T09:49:40.329Z,804
2018-06-03T09:50:40.911Z,812
2018-06-03T09:51:41.493Z,820
2018-06-03T09:52:42.069Z,828
2018-06-03T09:53:42.648Z,828
2018-06-03T09:54:43.231Z,828
2018-06-03T09:55:43.809Z,824
2018-06-03T09:56:44.389Z,820
2018-06-03T09:57:44.970Z,816
2018-06-03T09:58:45.549Z,816
2018-06-03T09:59:46.131Z,812
2018-06-03T10:00:46.708Z,796
2018-06-03T10:01:47.286Z,776
2018-06-03T10:02:47.868Z,756
2018-06-03T10:03:48.446Z,724
2018-06-03T10:04:49.026Z,700
2018-06-03T10:05:49.607Z,676
2018-06-03T10:06:50.186Z,652
2018-06-03T10:07:50.772Z,636
2018-06-03T10:08:51.359Z,624
2018-06-03T10:09:51.935Z,608
2018-06-03T10:10:52.518Z,592
2018-06-03T10:11:53.097Z,576
2018-06-03T10:12:53.675Z,568
2018-06-03T10:13:54.261Z,556
2018-06-03T10:14:54.837Z,548
2018-06-03T10:15:55.418Z,540
2018-06-03T10:16:55.997Z,536
2018-06-03T10:17:56.578Z,528
2018-06-03T10:18:57.160Z,528
2018-06-03T10:19:57.738Z,524
2018-06-03T10:20:58.318Z,524
2018-06-03T10:21:58.897Z,520
2018-06-03T10:22:59.476Z,528
2018-06-03T10:24:00.058Z,528
2018-06-03T10:25:00.637Z,536
2018-06-03T10:26:01.216Z,548
2018-06-03T10:27:01.840Z,556
2018-06-03T10:28:02.376Z,568
2018-06-03T10:29:02.956Z,576
2018-06-03T10:30:03.536Z,592
2018-06-03T10:31:04.116Z,600
2018-06-03T10:32:04.700Z,620
2018-06-03T10:33:05.289Z,644
2018-06-03T10:34:05.868Z,672
2018-06-03T10:35:06.460Z,712
2018-06-03T10:36:07.043Z,744
2018-06-03T10:37:07.621Z,784
2018-06-03T10:38:08.205Z,820
2018-06-03T10:39:08.783Z,852
2018-06-03T10:40:09.361Z,880
2018-06-03T10:41:09.941Z,900
2018-06-03T10:42:10.520Z,916
2018-06-03T10:43:11.114Z,920
2018-06-03T10:44:11.691Z,928
2018-06-03T10:45:12.269Z,936
2018-06-03T10:46:12.849Z,936
2018-06-03T10:47:13.435Z,924
2018-06-03T10:48:14.021Z,916
2018-06-03T10:49:14.600Z,912
2018-06-03T10:50:15.183Z,916
2018-06-03T10:51:15.763Z,912
2018-06-03T10:52:16.345Z,908
2018-06-03T10:53:16.924Z,900
2018-06-03T10:54:17.516Z,892
2018-06-03T10:55:18.097Z,880
2018-06-03T10:56:18.679Z,848
2018-06-03T10:57:19.263Z,816
2018-06-03T10:58:19.850Z,780
2018-06-03T10:59:20.431Z,748
2018-06-03T11:00:21.014Z,728
2018-06-03T11:01:21.593Z,708
2018-06-03T11:02:22.185Z,696
2018-06-03T11:03:22.773Z,692
2018-06-03T11:04:23.353Z,692
2018-06-03T11:05:23.933Z,688
2018-06-03T11:06:24.516Z,700
2018-06-03T11:07:25.096Z,832
2018-06-03T11:08:25.682Z,900
2018-06-03T11:09:26.259Z,1008
2018-06-03T11:10:26.840Z,948
2018-06-03T11:11:27.423Z,1000
2018-06-03T11:12:28.004Z,1000
2018-06-03T11:13:28.584Z,1020
2018-06-03T11:14:29.168Z,1032
2018-06-03T11:15:29.760Z,1048
2018-06-03T11:16:30.342Z,980
2018-06-03T11:17:30.922Z,1064
2018-06-03T11:18:31.504Z,908
2018-06-03T11:19:32.086Z,908
2018-06-03T11:20:32.674Z,800
2018-06-03T11:21:33.256Z,752
2018-06-03T11:22:33.836Z,804
2018-06-03T11:23:34.415Z,772
2018-06-03T11:24:35.007Z,1020
2018-06-03T11:25:35.588Z,996
2018-06-03T11:26:36.169Z,1000
2018-06-03T11:27:36.751Z,1000
2018-06-03T11:28:37.331Z,1024
2018-06-03T11:29:37.914Z,1028
2018-06-03T11:30:38.494Z,1048
2018-06-03T11:31:39.075Z,1048
2018-06-03T11:32:39.659Z,1060
2018-06-03T11:33:40.241Z,1068
2018-06-03T11:34:40.821Z,1100
2018-06-03T11:35:41.407Z,1156
2018-06-03T11:36:41.986Z,1204
2018-06-03T11:37:42.566Z,1232
2018-06-03T11:38:43.148Z,1260
2018-06-03T11:39:43.729Z,1156
2018-06-03T11:40:44.313Z,1040
2018-06-03T11:41:44.894Z,944
2018-06-03T11:42:45.477Z,1000
2018-06-03T11:43:46.064Z,1256
2018-06-03T11:44:46.655Z,1288
2018-06-03T11:45:47.234Z,968
2018-06-03T11:46:47.815Z,952
2018-06-03T11:47:48.395Z,1040
2018-06-03T11:48:48.977Z,972
2018-06-03T11:49:49.559Z,964
2018-06-03T11:50:50.144Z,988
2018-06-03T11:51:50.723Z,1032
2018-06-03T11:52:51.311Z,976
2018-06-03T11:53:51.937Z,1260
2018-06-03T11:54:52.476Z,1184
2018-06-03T11:55:53.061Z,1224
2018-06-03T11:56:53.640Z,1212
2018-06-03T11:57:54.222Z,1204
2018-06-03T11:58:54.816Z,1208
2018-06-03T11:59:55.386Z,1188
2018-06-03T12:00:55.967Z,872
2018-06-03T12:01:56.565Z,1172
2018-06-03T12:02:57.130Z,796
2018-06-03T12:03:57.713Z,816
2018-06-03T12:04:58.297Z,736
2018-06-03T12:05:58.888Z,688
2018-06-03T12:06:59.479Z,864
2018-06-03T12:08:00.062Z,656
2018-06-03T12:09:00.642Z,588
2018-06-03T12:10:01.224Z,556
2018-06-03T12:11:01.816Z,532
2018-06-03T12:12:02.395Z,524
2018-06-03T12:13:02.979Z,516
2018-06-03T12:14:03.558Z,504
2018-06-03T12:15:04.138Z,500
2018-06-03T12:16:04.731Z,496
2018-06-03T12:17:05.312Z,500
2018-06-03T12:18:05.896Z,500
2018-06-03T12:19:06.473Z,504
2018-06-03T12:20:07.058Z,500
2018-06-03T12:21:07.647Z,496
2018-06-03T12:22:08.229Z,492
2018-06-03T12:23:08.813Z,488
2018-06-03T12:24:09.392Z,488
2018-06-03T12:25:09.972Z,488
2018-06-03T12:26:10.555Z,488
2018-06-03T12:27:11.134Z,488
2018-06-03T12:28:11.717Z,484
2018-06-03T12:29:12.300Z,480
2018-06-03T12:30:12.877Z,480
2018-06-03T12:31:13.459Z,484
2018-06-03T12:32:14.040Z,488
2018-06-03T12:33:14.621Z,496
2018-06-03T12:34:15.213Z,512
2018-06-03T12:35:15.794Z,524
2018-06-03T12:36:16.374Z,536
2018-06-03T12:37:16.954Z,556
2018-06-03T12:38:17.536Z,584
2018-06-03T12:39:18.125Z,616
2018-06-03T12:40:18.710Z,648
2018-06-03T12:41:19.287Z,688
2018-06-03T12:42:19.868Z,724
2018-06-03T12:43:20.456Z,760
2018-06-03T12:44:21.031Z,784
2018-06-03T12:45:21.615Z,808
2018-06-03T12:46:22.207Z,828
2018-06-03T12:47:22.787Z,852
2018-06-03T12:48:23.469Z,872
2018-06-03T12:49:24.050Z,892
2018-06-03T12:50:24.631Z,912
2018-06-03T12:51:25.217Z,928
2018-06-03T12:52:25.802Z,940
2018-06-03T12:53:26.382Z,956
2018-06-03T12:54:26.974Z,972
2018-06-03T12:55:27.554Z,980
2018-06-03T12:56:28.142Z,992
2018-06-03T12:57:28.723Z,988
2018-06-03T12:58:29.304Z,988
2018-06-03T12:59:29.887Z,988
2018-06-03T13:00:30.468Z,984
2018-06-03T13:01:31.051Z,976
2018-06-03T13:02:31.629Z,972
2018-06-03T13:03:32.210Z,976
2018-06-03T13:04:32.799Z,984
2018-06-03T13:05:33.379Z,992
2018-06-03T13:06:33.961Z,1008
2018-06-03T13:07:34.544Z,1016
2018-06-03T13:08:35.128Z,1024
2018-06-03T13:09:35.719Z,1032
2018-06-03T13:10:36.300Z,1076
2018-06-03T13:11:36.887Z,1396
2018-06-03T13:12:37.476Z,1304
2018-06-03T13:13:38.061Z,1176
2018-06-03T13:14:38.642Z,1268
2018-06-03T13:15:39.222Z,1324
2018-06-03T13:16:39.803Z,1520
2018-06-03T13:17:40.389Z,1312
2018-06-03T13:18:40.981Z,1232
2018-06-03T13:19:41.562Z,1108
2018-06-03T13:20:42.144Z,1140
2018-06-03T13:21:42.725Z,1072
2018-06-03T13:22:43.311Z,1140
2018-06-03T13:23:43.899Z,1048
2018-06-03T13:24:44.482Z,976
2018-06-03T13:25:45.062Z,964
2018-06-03T13:26:45.643Z,972
2018-06-03T13:27:46.229Z,980
2018-06-03T13:28:46.809Z,1000
2018-06-03T13:29:47.398Z,1008
2018-06-03T13:30:47.978Z,1016
2018-06-03T13:31:48.564Z,1016
2018-06-03T13:32:49.144Z,1020
2018-06-03T13:33:49.725Z,1004
2018-06-03T13:34:50.308Z,1000
2018-06-03T13:35:50.893Z,1012
2018-06-03T13:36:51.485Z,1020
2018-06-03T13:37:52.075Z,1044
2018-06-03T13:38:52.649Z,1076
2018-06-03T13:39:53.233Z,1108
2018-06-03T13:40:53.823Z,1148
2018-06-03T13:41:54.408Z,1192
2018-06-03T13:42:54.989Z,1260
2018-06-03T13:43:55.570Z,1388
2018-06-03T13:44:56.153Z,1540
2018-06-03T13:45:56.739Z,1492
2018-06-03T13:46:57.319Z,1460
2018-06-03T13:47:57.901Z,1488
2018-06-03T13:48:58.485Z,1736
2018-06-03T13:49:59.066Z,1796
2018-06-03T13:50:59.649Z,1776
2018-06-03T13:52:00.243Z,1744
2018-06-03T13:53:00.824Z,1724
2018-06-03T13:54:01.407Z,1712
2018-06-03T13:55:01.991Z,1740
2018-06-03T13:56:02.572Z,1604
2018-06-03T13:57:03.153Z,1664
2018-06-03T13:58:03.737Z,1664
2018-06-03T13:59:04.319Z,1652
2018-06-03T14:00:04.907Z,1652
2018-06-03T14:01:05.484Z,1648
2018-06-03T14:02:06.066Z,1628
2018-06-03T14:03:06.650Z,1256
2018-06-03T14:04:07.232Z,1628
2018-06-03T14:05:07.816Z,1620
2018-06-03T14:06:08.398Z,1616
2018-06-03T14:07:08.989Z,1616